Porto Seguro, Brazil
Current Conditions -  °F | °C
As of 10:00 PM on Wednesday 22 Oct 2014 (Local Time) from SBPS Reporting Station
Broken Clouds Broken Clouds  
Wind Chill: 70°   Ceiling: 2000
Heat Index: 70°   Visibility: 6mi
Dew Point: 66°   Wind: 3mph
Humidity: 88%   Direction: 230°SW
Pressure: 30.12"   Gusts: NA
Location:  16.43°S, 39.08°W
Report Text: SBPS 230100Z 23003KT 9999 BKN020 BKN070 21/19 Q1020
Loading
Personal Weather Stations






























Interactive Weather Map
Tropical Storm Tracking
New forecast layout! Learn more

10-Day Weather Forecast

Advertisements
Track Severe Weather on mobile